Time;durP1;ratioP1;P1;durP2;ratioP2;P2;SDS_P1;SDS_P2;PMS_P1;PMS_P2;Temp;Humidity;BMP_temperature;BMP_pressure;BME280_temperature;BME280_humidity;BME280_pressure;Samples;Min_cycle;Max_cycle;Signal;HPM_P1;HPM_P2
2023/04/03 00:01:25;;;;;;;7.47;2.03;;;;;;;;;;4945036;28;20686;-65
2023/04/03 00:03:51;;;;;;;4.90;1.70;;;;;;;;;;4944461;28;20214;-66
2023/04/03 00:06:16;;;;;;;4.07;1.80;;;;;;;;;;4944847;28;20236;-66
2023/04/03 00:08:42;;;;;;;3.97;1.80;;;;;;;;;;4944993;28;20242;-66
2023/04/03 00:11:07;;;;;;;5.20;1.90;;;;;;;;;;4944130;28;20598;-65
2023/04/03 00:13:32;;;;;;;6.73;1.90;;;;;;;;;;4944882;28;20210;-66
2023/04/03 00:15:58;;;;;;;3.67;1.60;;;;;;;;;;4939103;28;20273;-65
2023/04/03 00:18:23;;;;;;;4.83;1.80;;;;;;;;;;4936281;28;20764;-66
2023/04/03 00:20:49;;;;;;;4.47;1.70;;;;;;;;;;4937038;28;20756;-66
2023/04/03 00:23:14;;;;;;;6.07;1.60;;;;;;;;;;4926099;28;20296;-66
2023/04/03 00:25:40;;;;;;;7.10;2.00;;;;;;;;;;4943858;28;20784;-66
2023/04/03 00:28:05;;;;;;;6.57;1.80;;;;;;;;;;4944671;28;20222;-65
2023/04/03 00:30:30;;;;;;;5.33;1.90;;;;;;;;;;4944992;28;20241;-66
2023/04/03 00:32:55;;;;;;;3.83;1.80;;;;;;;;;;4962748;28;20237;-66
2023/04/03 00:35:21;;;;;;;7.70;2.00;;;;;;;;;;4962325;28;20288;-66
2023/04/03 00:37:46;;;;;;;5.33;1.90;;;;;;;;;;4958368;28;20375;-66
2023/04/03 00:40:12;;;;;;;6.73;2.20;;;;;;;;;;4953331;28;20615;-66
2023/04/03 00:42:37;;;;;;;4.63;1.70;;;;;;;;;;4954501;28;20320;-66
2023/04/03 00:45:03;;;;;;;4.13;1.70;;;;;;;;;;4958413;28;20218;-65
2023/04/03 00:47:28;;;;;;;6.70;1.90;;;;;;;;;;4960593;28;20233;-66
2023/04/03 00:49:53;;;;;;;5.40;2.07;;;;;;;;;;4948421;28;20225;-66
2023/04/03 00:52:19;;;;;;;4.33;1.77;;;;;;;;;;4970034;28;20225;-65
2023/04/03 00:54:45;;;;;;;4.80;1.70;;;;;;;;;;4954261;28;20226;-66
2023/04/03 00:57:10;;;;;;;6.63;1.90;;;;;;;;;;4953885;28;20244;-65
2023/04/03 00:59:37;;;;;;;3.43;1.67;;;;;;;;;;4971783;28;20213;-66
2023/04/03 01:02:02;;;;;;;6.83;2.20;;;;;;;;;;4957657;28;20264;-65
2023/04/03 01:04:28;;;;;;;3.60;1.70;;;;;;;;;;4975618;28;20217;-65
2023/04/03 01:06:55;;;;;;;5.13;2.03;;;;;;;;;;4974558;28;20234;-66
2023/04/03 01:09:20;;;;;;;4.97;1.90;;;;;;;;;;4957657;28;20229;-65
2023/04/03 01:11:46;;;;;;;4.70;2.03;;;;;;;;;;4975350;28;20756;-65
2023/04/03 01:14:11;;;;;;;4.67;2.20;;;;;;;;;;4974157;28;20237;-65
2023/04/03 01:16:36;;;;;;;4.60;1.97;;;;;;;;;;4974973;28;20601;-66
2023/04/03 01:19:02;;;;;;;4.73;1.90;;;;;;;;;;4974870;28;20209;-65
2023/04/03 01:21:32;;;;;;;7.70;2.00;;;;;;;;;;4957045;28;20229;-66
2023/04/03 01:23:59;;;;;;;4.67;1.90;;;;;;;;;;4957728;28;20317;-65
2023/04/03 01:26:25;;;;;;;6.37;2.30;;;;;;;;;;4957169;28;20240;-65
2023/04/03 01:28:50;;;;;;;6.23;1.90;;;;;;;;;;4974469;28;20304;-66
2023/04/03 01:31:23;;;;;;;5.80;2.23;;;;;;;;;;4941180;29;20343;-65
2023/04/03 01:33:48;;;;;;;4.87;1.87;;;;;;;;;;4936524;29;20242;-66
2023/04/03 01:36:15;;;;;;;4.27;1.67;;;;;;;;;;4935399;29;20605;-65
2023/04/03 01:38:41;;;;;;;6.80;2.03;;;;;;;;;;4936510;29;20335;-66
2023/04/03 01:41:06;;;;;;;7.03;2.37;;;;;;;;;;4935966;29;20310;-65
2023/04/03 01:43:31;;;;;;;6.40;2.87;;;;;;;;;;4935846;29;20226;-65
2023/04/03 01:45:56;;;;;;;6.23;2.20;;;;;;;;;;4939269;28;20231;-66
2023/04/03 01:48:22;;;;;;;6.27;2.30;;;;;;;;;;4948854;28;20214;-65
2023/04/03 01:50:47;;;;;;;7.43;2.00;;;;;;;;;;4940831;28;20235;-65
2023/04/03 01:53:12;;;;;;;5.83;2.20;;;;;;;;;;4943578;28;20213;-65
2023/04/03 01:55:37;;;;;;;9.90;2.57;;;;;;;;;;4935457;29;20282;-66
2023/04/03 01:58:03;;;;;;;8.27;2.07;;;;;;;;;;4936254;29;20208;-65
2023/04/03 02:00:28;;;;;;;4.73;1.97;;;;;;;;;;4936029;29;20215;-65
2023/04/03 02:02:53;;;;;;;8.53;2.20;;;;;;;;;;4935131;29;20222;-65
2023/04/03 02:05:19;;;;;;;7.20;2.13;;;;;;;;;;4935674;29;20267;-65
2023/04/03 02:07:44;;;;;;;6.37;2.30;;;;;;;;;;4935760;29;20265;-66
2023/04/03 02:10:09;;;;;;;7.63;2.07;;;;;;;;;;4934966;29;20227;-65
2023/04/03 02:12:35;;;;;;;3.37;1.90;;;;;;;;;;4934974;29;20211;-66
2023/04/03 02:15:00;;;;;;;6.57;2.40;;;;;;;;;;4935923;29;20246;-65
2023/04/03 02:17:26;;;;;;;6.33;2.50;;;;;;;;;;4934742;29;20271;-66
2023/04/03 02:19:51;;;;;;;9.97;2.50;;;;;;;;;;4935685;29;20258;-66
2023/04/03 02:22:16;;;;;;;5.17;2.10;;;;;;;;;;4935226;29;20211;-65
2023/04/03 02:24:41;;;;;;;6.67;2.60;;;;;;;;;;4935039;29;20306;-66
2023/04/03 02:27:07;;;;;;;5.83;2.30;;;;;;;;;;4935144;29;20234;-65
2023/04/03 02:29:32;;;;;;;5.90;2.07;;;;;;;;;;4937341;29;20223;-66
2023/04/03 02:31:57;;;;;;;5.13;2.23;;;;;;;;;;4962452;28;20248;-66
2023/04/03 02:34:23;;;;;;;4.97;2.40;;;;;;;;;;4973212;28;20233;-65
2023/04/03 02:36:48;;;;;;;5.50;2.17;;;;;;;;;;4973815;28;20577;-66
2023/04/03 02:39:13;;;;;;;4.93;2.07;;;;;;;;;;4970193;28;20221;-65
2023/04/03 02:41:38;;;;;;;7.30;2.50;;;;;;;;;;4944474;28;20225;-66
2023/04/03 02:44:04;;;;;;;6.13;2.17;;;;;;;;;;4944438;28;20294;-65
2023/04/03 02:46:29;;;;;;;6.07;2.20;;;;;;;;;;4944059;28;20578;-66
2023/04/03 02:48:55;;;;;;;8.13;2.63;;;;;;;;;;4944848;28;20206;-66
2023/04/03 02:51:20;;;;;;;6.33;2.13;;;;;;;;;;4944485;28;20219;-66
2023/04/03 02:53:45;;;;;;;7.70;2.17;;;;;;;;;;4943365;28;20218;-65
2023/04/03 02:56:11;;;;;;;5.87;1.90;;;;;;;;;;4937636;28;20347;-65
2023/04/03 02:58:36;;;;;;;9.27;2.30;;;;;;;;;;4936668;28;20221;-66
2023/04/03 03:01:01;;;;;;;4.97;1.97;;;;;;;;;;4937264;28;20644;-65
2023/04/03 03:03:26;;;;;;;7.77;2.60;;;;;;;;;;4944016;28;20219;-65
2023/04/03 03:06:02;;;;;;;7.33;2.40;;;;;;;;;;4943818;28;20975;-65
2023/04/03 03:08:27;;;;;;;5.43;2.50;;;;;;;;;;4962944;28;20308;-65
2023/04/03 03:10:53;;;;;;;7.57;2.60;;;;;;;;;;4963479;28;20637;-66
2023/04/03 03:13:18;;;;;;;4.97;2.30;;;;;;;;;;4962018;28;20274;-65
2023/04/03 03:15:43;;;;;;;6.33;2.23;;;;;;;;;;4945190;28;20849;-66
2023/04/03 03:18:08;;;;;;;7.03;2.40;;;;;;;;;;4938247;28;20255;-65
2023/04/03 03:20:34;;;;;;;11.30;2.60;;;;;;;;;;4936424;28;20218;-65
2023/04/03 03:22:59;;;;;;;6.63;2.50;;;;;;;;;;4936589;28;20245;-65
2023/04/03 03:25:24;;;;;;;5.93;2.23;;;;;;;;;;4942028;28;20234;-65
2023/04/03 03:27:50;;;;;;;9.40;2.40;;;;;;;;;;4943505;28;20235;-65
2023/04/03 03:30:15;;;;;;;7.63;2.70;;;;;;;;;;4944683;28;20211;-65
2023/04/03 03:32:40;;;;;;;7.67;2.33;;;;;;;;;;4944004;28;20238;-65
2023/04/03 03:35:06;;;;;;;8.90;2.53;;;;;;;;;;4942536;28;20218;-65
2023/04/03 03:37:31;;;;;;;5.97;2.90;;;;;;;;;;4944325;28;20718;-65
2023/04/03 03:39:56;;;;;;;5.67;2.30;;;;;;;;;;4940430;28;20222;-65
2023/04/03 03:42:22;;;;;;;6.30;2.30;;;;;;;;;;4936004;28;20214;-66
2023/04/03 03:44:47;;;;;;;5.57;2.17;;;;;;;;;;4936209;28;20867;-65
2023/04/03 03:47:12;;;;;;;6.47;2.70;;;;;;;;;;4952002;28;20226;-65
2023/04/03 03:49:38;;;;;;;6.40;2.40;;;;;;;;;;4942842;28;20219;-66
2023/04/03 03:52:03;;;;;;;10.07;2.70;;;;;;;;;;4943422;28;20288;-65
2023/04/03 03:54:28;;;;;;;7.30;2.30;;;;;;;;;;4943346;28;20258;-65
2023/04/03 03:56:54;;;;;;;7.50;2.63;;;;;;;;;;4943491;28;20693;-66
2023/04/03 03:59:19;;;;;;;4.33;2.00;;;;;;;;;;4945411;28;20253;-65
2023/04/03 04:01:45;;;;;;;8.57;2.43;;;;;;;;;;4942577;28;20317;-65
2023/04/03 04:04:10;;;;;;;6.30;2.07;;;;;;;;;;4953837;28;20818;-65
2023/04/03 04:06:35;;;;;;;7.80;2.50;;;;;;;;;;4954843;28;20221;-65
2023/04/03 04:09:01;;;;;;;7.77;2.43;;;;;;;;;;4954550;28;20217;-65
2023/04/03 04:11:27;;;;;;;6.30;2.13;;;;;;;;;;4962041;28;20689;-65
2023/04/03 04:13:52;;;;;;;5.57;2.10;;;;;;;;;;4962497;28;20698;-66
2023/04/03 04:16:18;;;;;;;7.30;2.50;;;;;;;;;;4943510;28;20230;-65
2023/04/03 04:18:43;;;;;;;7.27;2.40;;;;;;;;;;4962272;28;20217;-65
2023/04/03 04:21:08;;;;;;;4.87;2.10;;;;;;;;;;4961471;28;20660;-65
2023/04/03 04:23:34;;;;;;;6.77;2.30;;;;;;;;;;4952247;28;20223;-65
2023/04/03 04:25:59;;;;;;;9.07;2.37;;;;;;;;;;4938939;28;20231;-65
2023/04/03 04:28:25;;;;;;;6.07;2.30;;;;;;;;;;4954410;28;20749;-65
2023/04/03 04:30:50;;;;;;;6.87;2.83;;;;;;;;;;4942410;28;20927;-65
2023/04/03 04:33:16;;;;;;;6.50;2.47;;;;;;;;;;4940591;28;20798;-65
2023/04/03 04:35:42;;;;;;;5.23;2.50;;;;;;;;;;4942551;28;20218;-65
2023/04/03 04:38:08;;;;;;;7.57;2.50;;;;;;;;;;4941732;28;20222;-65
2023/04/03 04:40:33;;;;;;;6.47;2.60;;;;;;;;;;4942866;28;20712;-65
2023/04/03 04:42:59;;;;;;;6.90;3.03;;;;;;;;;;4942678;28;20218;-65
2023/04/03 04:45:24;;;;;;;8.17;2.80;;;;;;;;;;4942031;28;20230;-65
2023/04/03 04:47:51;;;;;;;6.03;2.40;;;;;;;;;;4939405;28;20745;-66
2023/04/03 04:50:16;;;;;;;7.37;2.27;;;;;;;;;;4938062;28;20214;-65
2023/04/03 04:52:42;;;;;;;6.83;2.40;;;;;;;;;;4934528;28;20905;-66
2023/04/03 04:55:07;;;;;;;5.80;2.17;;;;;;;;;;4938352;28;20300;-65
2023/04/03 04:57:32;;;;;;;8.60;2.77;;;;;;;;;;4943286;28;20210;-65
2023/04/03 04:59:57;;;;;;;6.70;2.53;;;;;;;;;;4942042;28;20296;-65
2023/04/03 05:02:23;;;;;;;6.83;2.57;;;;;;;;;;4942399;28;20214;-65
2023/04/03 05:04:50;;;;;;;7.03;2.23;;;;;;;;;;4942411;28;20303;-65
2023/04/03 05:07:15;;;;;;;6.47;2.73;;;;;;;;;;4941183;28;20234;-65
2023/04/03 05:09:42;;;;;;;5.60;2.50;;;;;;;;;;4942019;28;20226;-65
2023/04/03 05:12:07;;;;;;;7.67;2.40;;;;;;;;;;4935001;28;20222;-64
2023/04/03 05:14:32;;;;;;;7.17;2.40;;;;;;;;;;4935375;28;20753;-65
2023/04/03 05:16:58;;;;;;;5.93;2.67;;;;;;;;;;4935893;28;20238;-65
2023/04/03 05:19:23;;;;;;;7.70;2.33;;;;;;;;;;4941837;28;20674;-65
2023/04/03 05:21:48;;;;;;;8.90;2.40;;;;;;;;;;4942075;28;20219;-65
2023/04/03 05:24:14;;;;;;;8.17;2.20;;;;;;;;;;4942282;28;20705;-64
2023/04/03 05:26:40;;;;;;;6.90;2.07;;;;;;;;;;4941744;28;20599;-65
2023/04/03 05:29:05;;;;;;;7.57;2.30;;;;;;;;;;4952584;28;20213;-65
2023/04/03 05:31:30;;;;;;;7.87;2.40;;;;;;;;;;4967873;28;20264;-66
2023/04/03 05:33:56;;;;;;;18.40;10.53;;;;;;;;;;4970318;28;20222;-62
2023/04/03 05:36:21;;;;;;;9.40;3.43;;;;;;;;;;4970270;28;20510;-64
2023/04/03 05:38:46;;;;;;;5.70;2.00;;;;;;;;;;4971119;28;20214;-64
2023/04/03 05:41:12;;;;;;;5.67;2.00;;;;;;;;;;4969614;28;20213;-64
2023/04/03 05:43:38;;;;;;;5.40;1.93;;;;;;;;;;4960837;28;20217;-63
2023/04/03 05:46:04;;;;;;;7.17;2.40;;;;;;;;;;4961321;28;20230;-63
2023/04/03 05:48:29;;;;;;;5.73;2.33;;;;;;;;;;4961587;28;20260;-63
2023/04/03 05:50:55;;;;;;;8.97;2.37;;;;;;;;;;4964724;28;20206;-63
2023/04/03 05:53:22;;;;;;;7.43;2.10;;;;;;;;;;4964162;28;20249;-63
2023/04/03 05:55:47;;;;;;;7.23;2.03;;;;;;;;;;4963020;28;20209;-63
2023/04/03 05:58:13;;;;;;;6.47;1.90;;;;;;;;;;4965942;28;20206;-63
2023/04/03 06:00:38;;;;;;;8.37;2.23;;;;;;;;;;4964295;28;20292;-64
2023/04/03 06:03:04;;;;;;;9.70;2.53;;;;;;;;;;4958790;28;20226;-65
2023/04/03 06:05:29;;;;;;;6.90;2.30;;;;;;;;;;4954086;29;20995;-64
2023/04/03 06:07:55;;;;;;;5.53;2.27;;;;;;;;;;4954619;29;20281;-65
2023/04/03 06:10:20;;;;;;;8.53;2.13;;;;;;;;;;4953989;29;20293;-65
2023/04/03 06:12:46;;;;;;;9.40;2.70;;;;;;;;;;4949566;28;20215;-64
2023/04/03 06:15:11;;;;;;;5.70;2.10;;;;;;;;;;4959395;28;20258;-64
2023/04/03 06:17:37;;;;;;;7.73;2.00;;;;;;;;;;4959377;28;20222;-65
2023/04/03 06:20:03;;;;;;;6.00;2.37;;;;;;;;;;4952588;28;20206;-65
2023/04/03 06:22:29;;;;;;;7.18;2.25;;;;;;;;;;4958285;28;20224;-65
2023/04/03 06:24:55;;;;;;;7.00;2.08;;;;;;;;;;4957853;28;20219;-65
2023/04/03 06:27:20;;;;;;;7.47;2.20;;;;;;;;;;4955465;28;20227;-65
2023/04/03 06:29:45;;;;;;;7.25;2.20;;;;;;;;;;4963659;28;20217;-66
2023/04/03 06:32:11;;;;;;;6.18;2.42;;;;;;;;;;4972898;28;20332;-65
2023/04/03 06:34:36;;;;;;;5.03;2.20;;;;;;;;;;4963889;28;20211;-66
2023/04/03 06:37:02;;;;;;;6.83;2.30;;;;;;;;;;4961737;28;20206;-65
2023/04/03 06:39:27;;;;;;;7.35;1.90;;;;;;;;;;4971189;28;20220;-66
2023/04/03 06:41:52;;;;;;;7.07;2.20;;;;;;;;;;4970589;28;20584;-66
2023/04/03 06:44:17;;;;;;;7.57;2.20;;;;;;;;;;4972496;28;20296;-66
2023/04/03 06:46:43;;;;;;;6.43;2.28;;;;;;;;;;4971346;28;20222;-66
2023/04/03 06:49:09;;;;;;;7.93;2.10;;;;;;;;;;4961092;28;20669;-66
2023/04/03 06:51:35;;;;;;;8.05;2.42;;;;;;;;;;4972847;28;20226;-66
2023/04/03 06:54:00;;;;;;;5.38;1.80;;;;;;;;;;4956022;28;20216;-66
2023/04/03 06:56:26;;;;;;;6.78;2.60;;;;;;;;;;4973196;28;20222;-66
2023/04/03 06:58:54;;;;;;;5.68;1.90;;;;;;;;;;4972366;28;20217;-66
2023/04/03 07:01:19;;;;;;;7.23;2.63;;;;;;;;;;4972617;28;20224;-66
2023/04/03 07:03:46;;;;;;;6.43;2.20;;;;;;;;;;4972807;28;20297;-66
2023/04/03 07:06:11;;;;;;;6.10;1.75;;;;;;;;;;4972076;28;20553;-65
2023/04/03 07:08:36;;;;;;;7.40;2.38;;;;;;;;;;4955856;28;20297;-65
2023/04/03 07:11:02;;;;;;;5.85;2.15;;;;;;;;;;4971707;28;20600;-65
2023/04/03 07:13:27;;;;;;;6.95;2.25;;;;;;;;;;4961773;28;20214;-66
2023/04/03 07:15:52;;;;;;;4.77;2.13;;;;;;;;;;4972777;28;20217;-65
2023/04/03 07:18:18;;;;;;;6.50;2.00;;;;;;;;;;4972635;28;20708;-65
2023/04/03 07:20:43;;;;;;;6.25;2.05;;;;;;;;;;4972238;28;20238;-66
2023/04/03 07:23:08;;;;;;;5.60;1.88;;;;;;;;;;4972344;28;20213;-64
2023/04/03 07:25:34;;;;;;;5.05;1.73;;;;;;;;;;4973018;28;20247;-65
2023/04/03 07:27:59;;;;;;;6.90;2.10;;;;;;;;;;4972188;28;20226;-65
2023/04/03 07:30:25;;;;;;;3.88;1.65;;;;;;;;;;4961238;28;20720;-65
2023/04/03 07:32:51;;;;;;;8.35;2.10;;;;;;;;;;4961798;28;20238;-65
2023/04/03 07:35:17;;;;;;;7.35;2.00;;;;;;;;;;4953032;29;20218;-65
2023/04/03 07:37:42;;;;;;;5.18;1.92;;;;;;;;;;4953476;29;20269;-65
2023/04/03 07:40:08;;;;;;;5.20;1.70;;;;;;;;;;4951848;29;20219;-65
2023/04/03 07:42:33;;;;;;;6.10;1.90;;;;;;;;;;4961570;28;20587;-65
2023/04/03 07:44:59;;;;;;;6.50;1.95;;;;;;;;;;4972202;28;20304;-64
2023/04/03 07:47:25;;;;;;;3.67;1.48;;;;;;;;;;4963596;28;20710;-64
2023/04/03 07:49:51;;;;;;;5.53;1.83;;;;;;;;;;4966066;28;20210;-63
2023/04/03 07:52:16;;;;;;;5.13;1.67;;;;;;;;;;4971974;28;20221;-64
2023/04/03 07:54:42;;;;;;;5.35;1.65;;;;;;;;;;4971733;28;20580;-64
2023/04/03 07:57:07;;;;;;;4.65;1.63;;;;;;;;;;4971968;28;20340;-64
2023/04/03 07:59:32;;;;;;;4.67;1.67;;;;;;;;;;4972009;28;20562;-63
2023/04/03 08:01:58;;;;;;;6.72;1.50;;;;;;;;;;4971616;28;20225;-63
2023/04/03 08:04:23;;;;;;;7.37;1.80;;;;;;;;;;4971716;28;20297;-63
2023/04/03 08:06:48;;;;;;;5.90;1.73;;;;;;;;;;4972354;28;20222;-63
2023/04/03 08:09:15;;;;;;;4.83;1.73;;;;;;;;;;4970183;28;20297;-63
2023/04/03 08:11:40;;;;;;;5.77;1.57;;;;;;;;;;4972138;28;20222;-64
2023/04/03 08:14:06;;;;;;;4.03;1.55;;;;;;;;;;4953844;28;20820;-63
2023/04/03 08:16:31;;;;;;;3.53;1.48;;;;;;;;;;4971513;28;20220;-63
2023/04/03 08:18:56;;;;;;;3.88;1.35;;;;;;;;;;4972180;28;20213;-63
2023/04/03 08:21:22;;;;;;;4.15;1.25;;;;;;;;;;4971625;28;20210;-63
2023/04/03 08:23:48;;;;;;;5.18;1.42;;;;;;;;;;4971140;28;20210;-64
2023/04/03 08:26:15;;;;;;;4.38;1.33;;;;;;;;;;4971216;28;20313;-63
2023/04/03 08:28:40;;;;;;;4.20;1.42;;;;;;;;;;4971960;28;20714;-64
2023/04/03 08:31:06;;;;;;;4.57;1.25;;;;;;;;;;4956005;28;20213;-64
2023/04/03 08:33:32;;;;;;;4.05;1.20;;;;;;;;;;4952535;29;20214;-64
2023/04/03 08:35:57;;;;;;;4.07;1.25;;;;;;;;;;4952683;29;20219;-64
2023/04/03 08:38:22;;;;;;;4.47;1.08;;;;;;;;;;4951442;29;20257;-64
2023/04/03 08:40:51;;;;;;;3.15;1.17;;;;;;;;;;4952321;29;20620;-63
2023/04/03 08:43:28;;;;;;;4.20;1.30;;;;;;;;;;4933622;29;20245;-63
2023/04/03 08:45:55;;;;;;;4.20;1.30;;;;;;;;;;4951954;29;20214;-63
2023/04/03 08:48:22;;;;;;;2.88;1.20;;;;;;;;;;4965832;28;20222;-63
2023/04/03 08:50:49;;;;;;;3.17;1.20;;;;;;;;;;4934634;29;20221;-64
2023/04/03 08:53:15;;;;;;;4.72;1.63;;;;;;;;;;4951853;29;20210;-63
2023/04/03 08:55:42;;;;;;;3.63;1.10;;;;;;;;;;4935126;29;20224;-63
2023/04/03 08:58:12;;;;;;;2.47;1.00;;;;;;;;;;4933857;29;20210;-64
2023/04/03 09:00:41;;;;;;;3.00;0.90;;;;;;;;;;4934783;29;20217;-63
2023/04/03 09:03:10;;;;;;;4.20;0.98;;;;;;;;;;4959155;28;20216;-63
2023/04/03 09:05:39;;;;;;;2.15;0.90;;;;;;;;;;4940568;29;20238;-63
2023/04/03 09:08:05;;;;;;;2.37;0.90;;;;;;;;;;4934500;29;20226;-63
2023/04/03 09:10:32;;;;;;;2.08;0.70;;;;;;;;;;4951825;29;20229;-63
2023/04/03 09:13:00;;;;;;;1.77;0.77;;;;;;;;;;4951038;29;20728;-63
2023/04/03 09:15:25;;;;;;;2.67;0.70;;;;;;;;;;4932290;29;20218;-63
2023/04/03 09:18:00;;;;;;;2.95;0.70;;;;;;;;;;4950220;28;20222;-64
2023/04/03 09:20:33;;;;;;;1.27;0.52;;;;;;;;;;4940277;28;20217;-63
2023/04/03 09:22:58;;;;;;;2.40;0.70;;;;;;;;;;4963778;28;20466;-63
2023/04/03 09:25:29;;;;;;;2.33;0.85;;;;;;;;;;4963772;28;20205;-63
2023/04/03 09:27:54;;;;;;;2.55;0.73;;;;;;;;;;4964276;28;20245;-63
2023/04/03 09:30:21;;;;;;;1.55;0.70;;;;;;;;;;4963176;28;21323;-63
2023/04/03 09:32:47;;;;;;;2.38;1.00;;;;;;;;;;4962492;28;20249;-63
2023/04/03 09:35:14;;;;;;;1.35;0.70;;;;;;;;;;4964802;28;20230;-62
2023/04/03 09:37:40;;;;;;;1.52;0.70;;;;;;;;;;4963739;28;20217;-63
2023/04/03 09:40:06;;;;;;;4.10;0.90;;;;;;;;;;4946755;28;20223;-62
2023/04/03 09:42:32;;;;;;;2.80;0.80;;;;;;;;;;4964133;28;20325;-62
2023/04/03 09:44:59;;;;;;;1.90;0.85;;;;;;;;;;4948102;28;20293;-63
2023/04/03 09:47:25;;;;;;;2.58;0.75;;;;;;;;;;4959173;28;20289;-63
2023/04/03 09:49:50;;;;;;;2.63;0.70;;;;;;;;;;4971395;28;20218;-64
2023/04/03 09:52:20;;;;;;;4.15;0.90;;;;;;;;;;4973921;28;20646;-63
2023/04/03 09:54:46;;;;;;;3.03;0.90;;;;;;;;;;4956405;28;20238;-64
2023/04/03 09:57:12;;;;;;;2.72;0.82;;;;;;;;;;4956785;28;20855;-63
2023/04/03 09:59:41;;;;;;;2.25;1.00;;;;;;;;;;4937973;29;20223;-64
2023/04/03 10:02:06;;;;;;;3.63;0.80;;;;;;;;;;4953916;29;20215;-63
2023/04/03 10:04:39;;;;;;;1.77;0.90;;;;;;;;;;4955004;29;20229;-64
2023/04/03 10:07:04;;;;;;;2.30;0.80;;;;;;;;;;4954664;29;20321;-63
2023/04/03 10:09:30;;;;;;;2.72;0.70;;;;;;;;;;4937210;29;20624;-64
2023/04/03 10:11:56;;;;;;;2.88;0.90;;;;;;;;;;4937743;29;20225;-64
2023/04/03 10:14:22;;;;;;;3.38;0.95;;;;;;;;;;4953972;29;20238;-64
2023/04/03 10:16:48;;;;;;;3.72;0.90;;;;;;;;;;4954221;29;20267;-63
2023/04/03 10:19:21;;;;;;;3.30;0.70;;;;;;;;;;4937324;29;20612;-64
2023/04/03 10:21:48;;;;;;;1.98;0.73;;;;;;;;;;4954161;29;20229;-64
2023/04/03 10:24:25;;;;;;;3.40;0.90;;;;;;;;;;4937081;29;20219;-63
2023/04/03 10:26:50;;;;;;;4.32;1.35;;;;;;;;;;4937479;29;20233;-63
2023/04/03 10:29:22;;;;;;;1.92;1.00;;;;;;;;;;4953240;29;20222;-63
2023/04/03 10:32:00;;;;;;;3.58;1.08;;;;;;;;;;4961678;28;20230;-63
2023/04/03 10:34:29;;;;;;;3.42;1.20;;;;;;;;;;4956696;28;20229;-64
2023/04/03 10:37:28;;;;;;;1.48;0.70;;;;;;;;;;4936810;29;20305;-63
2023/04/03 10:39:57;;;;;;;2.63;0.70;;;;;;;;;;4959615;28;20210;-64
2023/04/03 10:42:29;;;;;;;3.22;0.93;;;;;;;;;;4946761;28;20213;-63
2023/04/03 10:44:57;;;;;;;0.93;0.60;;;;;;;;;;4972454;28;20206;-63
2023/04/03 10:47:25;;;;;;;2.85;1.10;;;;;;;;;;4965755;28;20714;-64
2023/04/03 10:49:56;;;;;;;2.67;0.90;;;;;;;;;;4949361;28;20734;-63
2023/04/03 10:52:24;;;;;;;4.75;1.77;;;;;;;;;;4955806;28;20244;-63
2023/04/03 10:54:50;;;;;;;14.02;9.43;;;;;;;;;;4973343;28;20297;-64
2023/04/03 10:57:15;;;;;;;5.00;2.08;;;;;;;;;;4972054;28;20308;-64
2023/04/03 10:59:43;;;;;;;4.32;2.28;;;;;;;;;;4955835;28;20209;-63
2023/04/03 11:02:15;;;;;;;22.42;20.02;;;;;;;;;;4950837;28;20217;-63
2023/04/03 11:04:40;;;;;;;2.30;1.10;;;;;;;;;;4943936;29;20241;-64
2023/04/03 11:07:14;;;;;;;3.47;2.20;;;;;;;;;;4936358;29;20237;-63
2023/04/03 11:09:40;;;;;;;2.65;0.90;;;;;;;;;;4954089;29;20217;-64
2023/04/03 11:12:11;;;;;;;3.80;0.90;;;;;;;;;;4935755;29;20218;-63
2023/04/03 11:14:37;;;;;;;1.63;0.80;;;;;;;;;;4936311;29;20219;-64
2023/04/03 11:17:20;;;;;;;2.47;0.80;;;;;;;;;;4953430;29;20281;-63
2023/04/03 11:19:47;;;;;;;3.30;1.05;;;;;;;;;;4920155;29;20234;-65
2023/04/03 11:22:19;;;;;;;2.47;0.90;;;;;;;;;;4971867;28;20264;-65
2023/04/03 11:24:46;;;;;;;1.70;0.73;;;;;;;;;;4972950;28;20217;-65
2023/04/03 11:27:16;;;;;;;2.53;0.98;;;;;;;;;;4944071;28;20233;-64
2023/04/03 11:29:42;;;;;;;1.98;0.80;;;;;;;;;;4942699;28;20206;-64
2023/04/03 11:32:24;;;;;;;2.13;0.77;;;;;;;;;;4950750;28;20226;-64
2023/04/03 11:34:50;;;;;;;3.00;0.90;;;;;;;;;;4952355;29;20214;-64
2023/04/03 11:37:24;;;;;;;2.15;0.80;;;;;;;;;;4951757;28;20207;-64
2023/04/03 11:39:54;;;;;;;2.92;0.70;;;;;;;;;;4947345;28;20215;-64
2023/04/03 11:42:20;;;;;;;2.03;0.80;;;;;;;;;;4932508;29;20245;-64
2023/04/03 11:44:45;;;;;;;2.05;0.70;;;;;;;;;;4932782;29;20281;-64
2023/04/03 11:47:11;;;;;;;2.35;1.27;;;;;;;;;;4938332;28;20225;-64
2023/04/03 11:49:57;;;;;;;3.25;1.10;;;;;;;;;;4941073;29;20215;-64
2023/04/03 11:52:38;;;;;;;2.88;1.00;;;;;;;;;;4933535;29;20227;-64
2023/04/03 11:55:20;;;;;;;3.50;1.45;;;;;;;;;;4932902;29;20277;-64
2023/04/03 11:57:52;;;;;;;6.13;1.27;;;;;;;;;;4933649;29;20679;-65
2023/04/03 12:00:36;;;;;;;1.60;0.93;;;;;;;;;;4932549;28;20745;-64
2023/04/03 12:03:01;;;;;;;2.78;0.80;;;;;;;;;;4933576;29;20301;-63
2023/04/03 12:05:28;;;;;;;3.60;1.05;;;;;;;;;;4932505;29;20270;-64
2023/04/03 12:08:17;;;;;;;2.05;0.95;;;;;;;;;;4931783;29;20231;-64
2023/04/03 12:10:42;;;;;;;2.33;0.88;;;;;;;;;;4933472;29;20302;-64
2023/04/03 12:13:13;;;;;;;3.38;1.10;;;;;;;;;;4932905;29;20259;-64
2023/04/03 12:15:39;;;;;;;2.55;1.00;;;;;;;;;;4931441;29;20247;-65
2023/04/03 12:18:23;;;;;;;3.63;1.17;;;;;;;;;;4932973;29;20369;-64
2023/04/03 12:20:48;;;;;;;4.45;1.20;;;;;;;;;;4933587;29;20787;-64
2023/04/03 12:23:23;;;;;;;1.85;0.90;;;;;;;;;;4931944;29;20298;-64
2023/04/03 12:25:49;;;;;;;3.13;1.00;;;;;;;;;;4932764;29;20249;-64
2023/04/03 12:28:14;;;;;;;2.38;0.90;;;;;;;;;;4931078;29;20609;-64
2023/04/03 12:30:41;;;;;;;4.18;1.00;;;;;;;;;;4931133;29;20211;-65
2023/04/03 12:33:07;;;;;;;3.20;0.82;;;;;;;;;;4930499;29;20641;-64
2023/04/03 12:35:36;;;;;;;3.15;0.90;;;;;;;;;;4932011;29;20219;-65
2023/04/03 12:38:06;;;;;;;4.50;1.10;;;;;;;;;;4932158;29;20215;-64
2023/04/03 12:40:34;;;;;;;2.35;0.90;;;;;;;;;;4937807;28;20250;-65
2023/04/03 12:43:05;;;;;;;1.88;0.90;;;;;;;;;;4950630;28;20305;-65
2023/04/03 12:45:37;;;;;;;2.65;1.10;;;;;;;;;;4951085;28;20277;-65
2023/04/03 12:48:03;;;;;;;3.13;1.08;;;;;;;;;;4938394;28;20235;-64
2023/04/03 12:50:30;;;;;;;3.88;1.10;;;;;;;;;;4948123;29;20306;-65
2023/04/03 12:52:57;;;;;;;3.55;1.00;;;;;;;;;;4951583;28;20289;-65
2023/04/03 12:55:23;;;;;;;3.53;1.23;;;;;;;;;;4949421;28;20211;-65
2023/04/03 12:57:48;;;;;;;4.20;1.02;;;;;;;;;;4950348;28;20230;-65
2023/04/03 13:00:21;;;;;;;3.33;1.20;;;;;;;;;;4949134;28;20214;-65
2023/04/03 13:02:47;;;;;;;4.10;1.48;;;;;;;;;;4932260;29;20302;-65
2023/04/03 13:05:15;;;;;;;5.10;1.08;;;;;;;;;;4931290;29;20707;-65
2023/04/03 13:07:41;;;;;;;3.75;1.20;;;;;;;;;;4932255;29;20267;-65
2023/04/03 13:10:07;;;;;;;3.53;1.02;;;;;;;;;;4931751;29;20714;-65
2023/04/03 13:12:33;;;;;;;3.15;1.10;;;;;;;;;;4931391;29;20215;-65
2023/04/03 13:15:00;;;;;;;3.55;0.98;;;;;;;;;;4932256;29;20750;-66
2023/04/03 13:17:25;;;;;;;4.80;1.15;;;;;;;;;;4929874;29;20267;-65
2023/04/03 13:19:51;;;;;;;2.58;1.20;;;;;;;;;;4931947;29;20239;-66
2023/04/03 13:22:22;;;;;;;3.55;1.00;;;;;;;;;;4931575;29;20314;-65
2023/04/03 13:24:47;;;;;;;3.22;1.23;;;;;;;;;;4930170;29;20211;-66
2023/04/03 13:27:12;;;;;;;3.35;1.30;;;;;;;;;;4931344;29;20227;-65
2023/04/03 13:29:38;;;;;;;3.72;1.10;;;;;;;;;;4932200;29;20860;-66
2023/04/03 13:32:04;;;;;;;5.65;1.40;;;;;;;;;;4940010;29;20234;-66
2023/04/03 13:34:35;;;;;;;3.22;1.10;;;;;;;;;;4953035;28;21644;-64
2023/04/03 13:37:00;;;;;;;5.38;1.30;;;;;;;;;;4943016;28;20554;-64
2023/04/03 13:39:27;;;;;;;5.13;1.45;;;;;;;;;;4955728;28;20301;-64
2023/04/03 13:41:54;;;;;;;5.20;1.38;;;;;;;;;;4958221;28;20202;-64
2023/04/03 13:44:22;;;;;;;2.72;1.20;;;;;;;;;;4968593;28;20276;-63
2023/04/03 13:46:50;;;;;;;3.75;1.20;;;;;;;;;;4949585;28;20229;-63
2023/04/03 13:49:29;;;;;;;3.55;1.20;;;;;;;;;;4958208;28;20209;-63
2023/04/03 13:51:54;;;;;;;2.20;1.10;;;;;;;;;;4969771;28;20636;-63
2023/04/03 13:54:20;;;;;;;3.60;1.30;;;;;;;;;;4951851;28;20218;-63
2023/04/03 13:56:46;;;;;;;6.50;1.30;;;;;;;;;;4968279;28;20218;-64
2023/04/03 13:59:11;;;;;;;3.10;1.30;;;;;;;;;;4938695;28;20902;-64
2023/04/03 14:01:41;;;;;;;3.45;1.40;;;;;;;;;;4955128;28;20214;-63
2023/04/03 14:04:10;;;;;;;4.47;1.33;;;;;;;;;;4957333;28;20621;-63
2023/04/03 14:06:37;;;;;;;4.95;1.23;;;;;;;;;;4937173;28;20231;-63
2023/04/03 14:09:02;;;;;;;6.03;1.40;;;;;;;;;;4965817;28;20232;-64
2023/04/03 14:11:29;;;;;;;3.20;1.23;;;;;;;;;;4967204;28;20217;-64
2023/04/03 14:13:54;;;;;;;5.00;1.40;;;;;;;;;;4949570;28;20750;-64
2023/04/03 14:16:21;;;;;;;4.85;1.38;;;;;;;;;;4966552;28;20209;-63
2023/04/03 14:18:46;;;;;;;5.30;1.30;;;;;;;;;;4954290;28;20706;-64
2023/04/03 14:21:13;;;;;;;4.13;1.35;;;;;;;;;;4942888;28;20218;-63
2023/04/03 14:23:38;;;;;;;3.33;1.27;;;;;;;;;;4941825;28;20301;-63
2023/04/03 14:26:04;;;;;;;4.05;1.50;;;;;;;;;;4942087;28;20215;-64
2023/04/03 14:28:31;;;;;;;7.07;1.65;;;;;;;;;;4945430;28;20514;-64
2023/04/03 14:30:56;;;;;;;4.53;1.33;;;;;;;;;;4931652;28;20245;-64
2023/04/03 14:33:22;;;;;;;5.80;1.70;;;;;;;;;;4963495;28;20733;-64
2023/04/03 14:35:47;;;;;;;3.42;1.38;;;;;;;;;;4948976;28;20242;-64
2023/04/03 14:38:20;;;;;;;4.57;1.23;;;;;;;;;;4961095;28;20260;-64
2023/04/03 14:40:45;;;;;;;5.47;1.25;;;;;;;;;;4955051;28;20237;-64